CW0214 Weather Reports


time (UTC)temp
C
wind
direction
speed
KPH
gust
KPH
rain 1hr
cm
rain 24hr
cm
rain mn
cm
humidity
%
barometer
mb
20190617133431 26 174 0.0 16.1 0.00 0.00 0.00 32 1012.9
20190617132930 27 229 4.8 19.3 0.00 0.00 0.00 32 1012.9
20190617132430 27 219 9.7 16.1 0.00 0.00 0.00 32 1013.0
20190617131930 27 239 8.0 29.0 0.00 0.00 0.00 32 1013.2
20190617131430 27 167 11.3 29.0 0.00 0.00 0.00 35 1013.1
20190617130931 27 218 3.2 14.5 0.00 0.00 0.00 34 1013.3
20190617130431 26 314 1.6 9.7 0.00 0.00 0.00 36 1013.3
20190617125931 26 234 3.2 9.7 0.00 0.00 0.00 33 1013.3
20190617125430 26 177 1.6 9.7 0.00 0.00 0.00 33 1013.3
20190617124930 26 257 3.2 12.9 0.00 0.00 0.00 34 1013.3
20190617124431 26 258 8.0 19.3 0.00 0.00 0.00 34 1013.4
20190617123930 26 191 8.0 19.3 0.00 0.00 0.00 35 1013.4
20190617123431 26 182 4.8 16.1 0.00 0.00 0.00 34 1013.5
20190617122930 26 209 8.0 14.5 0.00 0.00 0.00 35 1013.6
20190617122430 26 182 11.3 24.1 0.00 0.00 0.00 34 1013.7
20190617121930 26 225 8.0 11.3 0.00 0.00 0.00 34 1013.8
20190617121431 26 226 3.2 14.5 0.00 0.00 0.00 36 1013.8
20190617120931 26 212 0.0 4.8 0.00 0.00 0.00 39 1013.9
20190617120430 26 272 3.2 11.3 0.00 0.00 0.00 39 1013.9
20190617115931 26 294 3.2 9.7 0.00 0.00 0.00 39 1013.9
20190617115431 25 5 1.6 9.7 0.00 0.00 0.00 40 1013.9
20190617114930 25 75 3.2 8.0 0.00 0.00 0.00 39 1013.9
20190617114430 26 242 4.8 8.0 0.00 0.00 0.00 38 1013.9
20190617113931 26 287 4.8 9.7 0.00 0.00 0.00 39 1014.1
20190617113431 25 265 0.0 4.8 0.00 0.00 0.00 40 1014.3
20190617112931 25 263 1.6 8.0 0.00 0.00 0.00 41 1014.4
20190617112431 23 239 8.0 14.5 0.00 0.00 0.00 44 1014.4
20190617111931 23 144 0.0 4.8 0.00 0.00 0.00 43 1014.4
20190617111431 23 142 8.0 11.3 0.00 0.00 0.00 44 1014.5
20190617110931 23 261 3.2 9.7 0.00 0.00 0.00 44 1014.5
20190617110431 22 165 3.2 14.5 0.00 0.00 0.00 47 1014.5
20190617105931 22 173 1.6 12.9 0.00 0.00 0.00 47 1014.4
20190617105432 23 315 6.4 11.3 0.00 0.00 0.00 48 1014.6
20190617104931 22 225 3.2 8.0 0.00 0.00 0.00 49 1014.7
20190617104431 22 225 1.6 8.0 0.00 0.00 0.00 51 1014.7
20190617103931 21 221 0.0 8.0 0.00 0.00 0.00 53 1014.8
20190617103430 20 111 0.0 3.2 0.00 0.00 0.00 55 1014.9
20190617102930 20 109 0.0 3.2 0.00 0.00 0.00 58 1015.0
20190617102431 20 116 1.6 8.0 0.00 0.00 0.00 59 1015.1
20190617101931 19 115 3.2 9.7 0.00 0.00 0.00 60 1015.1
20190617101431 19 337 3.2 9.7 0.00 0.00 0.00 59 1015.2
20190617100931 19 0 1.6 9.7 0.00 0.00 0.00 61 1015.4
20190617100431 18 27 1.6 9.7 0.00 0.00 0.00 62 1015.5
20190617095930 18 126 3.2 4.8 0.00 0.00 0.00 59 1015.5
20190617095431 18 115 0.0 0.0 0.00 0.00 0.00 60 1015.5
20190617094931 18 115 0.0 1.6 0.00 0.00 0.00 62 1015.4
20190617094432 18 120 3.2 9.7 0.00 0.00 0.00 64 1015.4
20190617093931 18 130 0.0 8.0 0.00 0.00 0.00 61 1015.5
20190617093430 18 55 0.0 3.2 0.00 0.00 0.00 62 1015.6
20190617092931 18 55 0.0 1.6 0.00 0.00 0.00 64 1015.6
20190617092431 17 54 0.0 4.8 0.00 0.00 0.00 66 1015.6
20190617091931 17 172 0.0 4.8 0.00 0.00 0.00 66 1015.6
20190617091431 16 180 0.0 1.6 0.00 0.00 0.00 69 1015.6
20190617090931 16 180 0.0 4.8 0.00 0.00 0.00 70 1015.7
20190617090432 16 180 3.2 9.7 0.00 0.00 0.00 71 1015.6
20190617085931 17 185 3.2 8.0 0.00 0.00 0.00 71 1015.8
20190617085431 16 145 4.8 8.0 0.00 0.00 0.00 73 1015.8
20190617084931 16 124 0.0 3.2 0.00 0.00 0.00 74 1015.6
20190617084431 16 167 3.2 8.0 0.00 0.00 0.00 75 1015.8
20190617083930 15 338 0.0 1.6 0.00 0.00 0.00 78 1015.7
20190617083431 15 338 0.0 4.8 0.00 0.00 0.00 81 1015.7
20190617082930 15 355 0.0 4.8 0.00 0.00 0.00 83 1016.1
20190617082431 14 1 3.2 8.0 0.00 0.00 0.00 86 1016.1
20190617081931 13 3 0.0 1.6 0.00 0.00 0.00 89 1016.0
20190617081432 13 4 0.0 0.0 0.00 0.00 0.00 89 1015.9
20190617080931 12 3 1.6 4.8 0.00 0.00 0.00 90 1015.9
20190617080431 12 3 0.0 4.8 0.00 0.00 0.00 90 1015.8
20190617075930 12 0 3.2 8.0 0.00 0.00 0.00 90 1015.8
20190617075430 12 9 1.6 3.2 0.00 0.00 0.00 90 1015.8
20190617074930 12 9 0.0 0.0 0.00 0.00 0.00 90 1015.9
20190617074430 12 4 0.0 0.0 0.00 0.00 0.00 91 1016.2
20190617073930 12 4 0.0 0.0 0.00 0.00 0.00 91 1016.2
20190617073431 12 3 0.0 3.2 0.00 0.00 0.00 91 1016.1
20190617072932 12 9 1.6 3.2 0.00 0.00 0.00 91 1015.9
20190617072430 12 3 1.6 4.8 0.00 0.00 0.00 91 1015.8
20190617071931 11 9 0.0 0.0 0.00 0.00 0.00 91 1016.0
20190617071431 11 9 0.0 0.0 0.00 0.00 0.00 92 1016.0
20190617070930 11 9 1.6 3.2 0.00 0.00 0.00 91 1015.9
20190617070430 11 9 0.0 1.6 0.00 0.00 0.00 90 1016.0
20190617065930 11 9 0.0 0.0 0.00 0.00 0.00 92 1016.1
20190617065430 11 9 0.0 0.0 0.00 0.00 0.00 92 1016.1
20190617064930 11 9 0.0 0.0 0.00 0.00 0.00 92 1016.1
20190617064430 11 9 0.0 0.0 0.00 0.00 0.00 92 1016.2
20190617063931 11 12 0.0 0.0 0.00 0.00 0.00 92 1016.2
20190617063432 11 11 1.6 4.8 0.00 0.00 0.00 91 1016.2
20190617062932 11 14 0.0 0.0 0.00 0.00 0.00 92 1016.2
20190617062431 11 305 0.0 4.8 0.00 0.00 0.00 91 1016.2
20190617061930 11 304 1.6 4.8 0.00 0.00 0.00 91 1016.1
20190617061431 11 310 0.0 0.0 0.00 0.00 0.00 91 1016.0
20190617060931 11 311 0.0 3.2 0.00 0.00 0.00 91 1015.7
20190617060430 11 279 0.0 0.0 0.00 0.00 0.00 91 1015.6
20190617055931 11 279 0.0 4.8 0.00 0.00 0.00 91 1015.6
20190617055432 11 280 0.0 3.2 0.00 0.00 0.00 91 1015.6
20190617054930 11 281 0.0 0.0 0.00 0.00 0.00 91 1015.5
20190617054430 11 281 0.0 3.2 0.00 0.00 0.00 91 1015.5
20190617053931 11 281 0.0 0.0 0.00 0.00 0.00 90 1015.2
20190617053430 11 281 0.0 0.0 0.00 0.00 0.00 90 1015.2
20190617052930 11 281 0.0 0.0 0.00 0.00 0.00 90 1015.2
20190617052429 11 281 0.0 0.0 0.00 0.00 0.00 90 1015.1
20190617051930 11 281 0.0 0.0 0.00 0.00 0.00 90 1015.2
20190617051432 11 281 0.0 0.0 0.00 0.00 0.00 90 1015.3
20190617050931 11 281 0.0 1.6 0.00 0.00 0.00 91 1015.3
20190617050431 11 277 0.0 0.0 0.00 0.00 0.00 91 1015.3
20190617045930 11 277 0.0 4.8 0.00 0.00 0.00 90 1015.3
20190617045431 11 272 1.6 4.8 0.00 0.00 0.00 90 1015.1
20190617044930 11 273 0.0 0.0 0.00 0.00 0.00 90 1015.2
20190617044431 11 273 1.6 4.8 0.00 0.00 0.00 90 1015.1
20190617043931 11 273 0.0 1.6 0.00 0.00 0.00 90 1015.1
20190617043431 11 273 0.0 0.0 0.00 0.00 0.00 90 1015.0
20190617042930 11 273 0.0 0.0 0.00 0.00 0.00 90 1015.0
20190617042431 11 273 0.0 4.8 0.00 0.00 0.00 90 1015.0
20190617041930 11 272 0.0 3.2 0.00 0.00 0.00 90 1015.0
20190617041431 12 281 0.0 4.8 0.00 0.00 0.00 90 1014.9
20190617040931 12 281 0.0 0.0 0.00 0.00 0.00 89 1015.0
20190617040430 12 281 0.0 0.0 0.00 0.00 0.00 89 1015.0
20190617035930 12 281 0.0 0.0 0.00 0.00 0.00 89 1015.0
20190617035430 12 281 0.0 0.0 0.00 0.00 0.00 89 1015.2
20190617034930 12 281 0.0 4.8 0.00 0.00 0.00 89 1015.1
20190617034431 12 252 1.6 8.0 0.00 0.00 0.00 89 1015.2
20190617033930 12 250 0.0 4.8 0.00 0.00 0.00 88 1015.1
20190617033431 12 253 4.8 8.0 0.00 0.00 0.00 89 1015.2
20190617032930 12 263 0.0 4.8 0.00 0.00 0.00 88 1015.2
20190617032431 12 263 1.6 8.0 0.00 0.00 0.00 88 1015.3
20190617031930 12 264 0.0 0.0 0.00 0.00 0.00 88 1015.4
20190617031431 12 265 0.0 8.0 0.00 0.00 0.00 88 1015.4
20190617030930 12 265 0.0 4.8 0.00 0.00 0.00 88 1015.4
20190617030431 12 263 0.0 0.0 0.00 0.00 0.00 87 1015.4
20190617025931 12 268 0.0 4.8 0.00 0.00 0.00 87 1015.4
20190617025430 12 271 1.6 4.8 0.00 0.00 0.00 87 1015.3
20190617024930 12 264 0.0 0.0 0.00 0.00 0.00 87 1015.3
20190617024431 12 266 0.0 3.2 0.00 0.00 0.00 87 1015.3
20190617023930 12 264 0.0 3.2 0.00 0.00 0.00 87 1015.4
20190617023430 12 265 0.0 0.0 0.00 0.00 0.00 87 1015.4
20190617022931 12 265 0.0 8.0 0.00 0.00 0.00 86 1015.4
20190617022431 12 251 1.6 4.8 0.00 0.00 0.00 86 1015.4
20190617021930 12 278 0.0 0.0 0.00 0.00 0.00 86 1015.5
20190617021432 12 272 1.6 4.8 0.00 0.00 0.00 86 1015.4
20190617020931 12 234 1.6 9.7 0.00 0.00 0.00 86 1015.4
20190617020430 12 239 3.2 11.3 0.00 0.00 0.00 86 1015.4
20190617015431 12 247 6.4 12.9 0.00 0.00 0.00 85 1015.6
20190617014930 12 255 8.0 16.1 0.00 0.00 0.00 85 1015.7
20190617014430 12 274 4.8 12.9 0.00 0.00 0.00 84 1015.8
20190617013930 12 258 4.8 12.9 0.00 0.00 0.00 84 1015.8
20190617013430 13 254 3.2 14.5 0.00 0.00 0.00 84 1015.8
20190617012930 13 258 4.8 14.5 0.00 0.00 0.00 83 1015.8
20190617012430 13 273 8.0 16.1 0.00 0.00 0.00 83 1015.9
20190617011930 13 255 3.2 12.9 0.00 0.00 0.00 83 1015.9
20190617011431 13 277 3.2 11.3 0.00 0.00 0.00 82 1015.9
20190617010931 13 265 3.2 11.3 0.00 0.00 0.00 82 1015.9
20190617010430 13 274 3.2 11.3 0.00 0.00 0.00 82 1015.9
20190617005931 13 280 8.0 12.9 0.00 0.00 0.00 81 1016.0
20190617005430 13 271 4.8 14.5 0.00 0.00 0.00 81 1015.9
20190617004931 13 288 3.2 11.3 0.00 0.00 0.00 81 1015.9
20190617004430 13 264 3.2 8.0 0.00 0.00 0.00 81 1015.9
20190617003930 13 280 1.6 8.0 0.00 0.00 0.00 80 1015.9
20190617003430 13 259 8.0 12.9 0.00 0.00 0.00 80 1015.9
20190617002930 13 253 3.2 11.3 0.00 0.00 0.00 80 1015.9
20190617002431 13 243 3.2 8.0 0.00 0.00 0.00 79 1015.9
20190617001930 13 280 1.6 9.7 0.00 0.00 0.00 79 1015.9
20190617001431 13 279 1.6 14.5 0.00 0.00 0.00 79 1015.9
20190617000931 13 266 3.2 14.5 0.00 0.00 0.00 79 1015.9
20190617000430 13 305 3.2 11.3 0.00 0.00 0.00 78 1015.9
20190616235930 14 248 1.6 11.3 0.00 0.00 0.00 78 1016.0
20190616235430 14 286 1.6 11.3 0.00 0.00 0.00 78 1016.0
20190616234930 14 287 1.6 8.0 0.00 0.00 0.00 78 1016.0
20190616234430 14 256 4.8 11.3 0.00 0.00 0.00 77 1016.0
20190616233930 14 257 0.0 4.8 0.00 0.00 0.00 77 1016.0
20190616233430 14 244 3.2 9.7 0.00 0.00 0.00 77 1016.1
20190616232930 14 237 1.6 4.8 0.00 0.00 0.00 77 1016.2
20190616232430 14 246 1.6 8.0 0.00 0.00 0.00 76 1016.2
20190616231931 15 249 1.6 8.0 0.00 0.00 0.00 76 1016.1
20190616231430 15 252 1.6 11.3 0.00 0.00 0.00 76 1016.1
20190616230930 15 297 3.2 9.7 0.00 0.00 0.00 76 1016.3
20190616230431 15 248 3.2 12.9 0.00 0.00 0.00 76 1016.1
20190616225930 15 275 1.6 9.7 0.00 0.00 0.00 75 1016.4
20190616225430 15 265 3.2 11.3 0.00 0.00 0.00 75 1016.4
20190616224930 15 253 1.6 8.0 0.00 0.00 0.00 75 1016.4
20190616224430 15 256 0.0 8.0 0.00 0.00 0.00 74 1016.4
20190616223931 15 292 3.2 16.1 0.00 0.00 0.00 74 1016.4
20190616223431 15 280 1.6 11.3 0.00 0.00 0.00 74 1016.4
20190616222930 15 251 1.6 12.9 0.00 0.00 0.00 74 1016.5
20190616222430 15 274 4.8 14.5 0.00 0.00 0.00 73 1016.5
20190616221930 15 257 1.6 12.9 0.00 0.00 0.00 73 1016.4
20190616221430 16 254 1.6 12.9 0.00 0.00 0.00 73 1016.4
20190616220930 16 262 1.6 11.3 0.00 0.00 0.00 72 1016.4
20190616220431 16 315 1.6 11.3 0.00 0.00 0.00 72 1016.4
20190616215931 16 229 3.2 9.7 0.00 0.00 0.00 72 1016.5
20190616215430 16 246 4.8 12.9 0.00 0.00 0.00 72 1016.6
20190616214931 16 270 4.8 12.9 0.00 0.00 0.00 71 1016.6
20190616214431 16 280 3.2 11.3 0.00 0.00 0.00 71 1016.5
20190616213930 16 263 1.6 11.3 0.00 0.00 0.00 70 1016.5
20190616213431 16 250 4.8 20.9 0.00 0.00 0.00 70 1016.5
20190616212931 16 265 3.2 11.3 0.00 0.00 0.00 69 1016.5
20190616212430 17 269 1.6 9.7 0.00 0.00 0.00 69 1016.5
20190616211931 17 249 3.2 14.5 0.00 0.00 0.00 68 1016.5
20190616211431 17 259 3.2 12.9 0.00 0.00 0.00 68 1016.5
20190616210932 17 302 6.4 19.3 0.00 0.00 0.00 68 1016.5
20190616210430 17 303 4.8 20.9 0.00 0.00 0.00 67 1016.5
20190616205931 17 221 3.2 11.3 0.00 0.00 0.00 66 1016.5
20190616205431 17 235 4.8 19.3 0.00 0.00 0.00 65 1016.3
20190616204930 17 185 1.6 19.3 0.00 0.00 0.00 64 1016.3
20190616204430 17 277 6.4 16.1 0.00 0.00 0.00 64 1016.2
20190616203930 18 257 1.6 11.3 0.00 0.00 0.00 63 1016.1
20190616203431 18 270 3.2 9.7 0.00 0.00 0.00 62 1016.1
20190616202931 18 277 1.6 12.9 0.00 0.00 0.00 62 1016.1
20190616202431 18 252 3.2 11.3 0.00 0.00 0.00 61 1016.1
20190616201931 18 234 4.8 14.5 0.00 0.00 0.00 60 1016.1
20190616201432 18 260 3.2 12.9 0.00 0.00 0.00 60 1016.0
20190616200931 18 264 4.8 19.3 0.00 0.00 0.00 58 1016.0
20190616200432 19 256 4.8 16.1 0.00 0.00 0.00 58 1016.0
20190616195931 19 260 1.6 4.8 0.00 0.00 0.00 57 1016.1
20190616195431 19 281 1.6 11.3 0.00 0.00 0.00 57 1016.0
20190616194931 20 242 3.2 14.5 0.00 0.00 0.00 56 1016.0
20190616194431 20 232 1.6 16.1 0.00 0.00 0.00 55 1015.9
20190616193930 20 272 4.8 16.1 0.00 0.00 0.00 54 1015.8
20190616193432 20 253 3.2 16.1 0.00 0.00 0.00 53 1015.9
20190616192930 20 235 3.2 11.3 0.00 0.00 0.00 54 1015.8
20190616192431 20 223 3.2 16.1 0.00 0.00 0.00 53 1015.8
20190616191931 21 279 4.8 14.5 0.00 0.00 0.00 53 1015.7
20190616191431 21 261 4.8 16.1 0.00 0.00 0.00 52 1015.6
20190616190931 21 228 3.2 11.3 0.00 0.00 0.00 52 1015.5
20190616190431 21 206 3.2 19.3 0.00 0.00 0.00 51 1015.5
20190616185931 21 246 6.4 19.3 0.00 0.00 0.00 50 1015.6
20190616185431 22 284 11.3 19.3 0.00 0.00 0.00 50 1015.6
20190616184931 22 254 6.4 20.9 0.00 0.00 0.00 50 1015.6
20190616184431 22 257 8.0 16.1 0.00 0.00 0.00 50 1015.6
20190616183932 22 248 8.0 19.3 0.00 0.00 0.00 50 1015.5
20190616183431 22 287 8.0 22.5 0.00 0.00 0.00 51 1015.5
20190616182931 22 231 9.7 20.9 0.00 0.00 0.00 51 1015.5
20190616182431 22 237 6.4 29.0 0.00 0.00 0.00 50 1015.4
20190616181931 22 239 3.2 19.3 0.00 0.00 0.00 50 1015.4
20190616181433 23 222 8.0 20.9 0.00 0.00 0.00 50 1015.4
20190616180933 23 247 8.0 19.3 0.00 0.00 0.00 50 1015.3
20190616180432 23 267 4.8 24.1 0.00 0.00 0.00 50 1015.1
20190616175931 23 238 8.0 25.7 0.00 0.00 0.00 50 1015.1
20190616175431 23 252 8.0 25.7 0.00 0.00 0.00 49 1015.0
20190616174931 24 235 4.8 20.9 0.00 0.00 0.00 48 1015.0
20190616174431 25 247 8.0 20.9 0.00 0.00 0.00 47 1015.0
20190616173931 25 271 8.0 22.5 0.00 0.00 0.00 47 1014.9
20190616173431 25 245 12.9 32.2 0.00 0.00 0.00 45 1014.8
20190616172931 25 236 6.4 32.2 0.00 0.00 0.00 45 1014.7
20190616172432 26 235 8.0 19.3 0.00 0.00 0.00 44 1014.5
20190616171930 26 243 8.0 20.9 0.00 0.00 0.00 44 1014.7
20190616171433 26 260 11.3 22.5 0.00 0.00 0.00 43 1014.7
20190616170932 26 200 8.0 19.3 0.00 0.00 0.00 43 1014.6
20190616170430 26 223 6.4 19.3 0.00 0.00 0.00 42 1014.5
20190616165930 27 270 6.4 20.9 0.00 0.00 0.00 41 1014.5
20190616165430 27 268 11.3 19.3 0.00 0.00 0.00 40 1014.4
20190616164930 27 256 11.3 20.9 0.00 0.00 0.00 39 1014.4
20190616164430 27 258 9.7 20.9 0.00 0.00 0.00 39 1014.3
20190616163930 27 232 4.8 14.5 0.00 0.00 0.00 37 1014.3
20190616163431 27 281 4.8 19.3 0.00 0.00 0.00 37 1014.3
20190616162931 27 271 1.6 19.3 0.00 0.00 0.00 35 1014.4
20190616162430 27 256 3.2 11.3 0.00 0.00 0.00 36 1014.4
20190616161931 27 312 6.4 12.9 0.00 0.00 0.00 36 1014.4
20190616161430 27 309 8.0 16.1 0.00 0.00 0.00 35 1014.4
20190616160931 27 286 8.0 19.3 0.00 0.00 0.00 35 1014.4
20190616160434 27 228 8.0 20.9 0.00 0.00 0.00 35 1014.5
20190616155932 27 204 1.6 16.1 0.00 0.00 0.00 32 1014.4
20190616155433 27 223 3.2 16.1 0.00 0.00 0.00 32 1014.5
20190616154932 27 181 8.0 19.3 0.00 0.00 0.00 31 1014.4
20190616154433 27 235 4.8 12.9 0.00 0.00 0.00 31 1014.5
20190616153933 27 219 3.2 12.9 0.00 0.00 0.00 31 1014.4
20190616153433 27 231 4.8 25.7 0.00 0.00 0.00 31 1014.4
20190616152934 27 236 8.0 16.1 0.00 0.00 0.00 32 1014.6
20190616152433 27 200 0.0 16.1 0.00 0.00 0.00 32 1014.6
20190616151933 27 221 8.0 25.7 0.00 0.00 0.00 32 1014.6
20190616151435 27 223 6.4 19.3 0.00 0.00 0.00 33 1014.6
20190616150933 26 183 8.0 19.3 0.00 0.00 0.00 33 1014.7
20190616150432 27 194 4.8 19.3 0.00 0.00 0.00 32 1014.8
20190616145933 27 242 3.2 12.9 0.00 0.00 0.00 33 1014.8
20190616145432 27 251 3.2 19.3 0.00 0.00 0.00 33 1014.8
20190616144932 27 237 9.7 25.7 0.00 0.00 0.00 32 1014.9
20190616144432 27 291 1.6 8.0 0.00 0.00 0.00 32 1014.9
20190616143933 27 230 11.3 22.5 0.00 0.00 0.00 32 1014.9
20190616143434 27 287 4.8 16.1 0.00 0.00 0.00 33 1014.9
20190616142933 27 193 1.6 9.7 0.00 0.00 0.00 34 1015.0
20190616142433 27 276 8.0 19.3 0.00 0.00 0.00 33 1015.2
20190616141933 27 264 4.8 14.5 0.00 0.00 0.00 34 1015.3
20190616141436 27 205 3.2 14.5 0.00 0.00 0.00 33 1015.3
20190616140934 27 248 8.0 20.9 0.00 0.00 0.00 33 1015.4
20190616140432 27 239 6.4 19.3 0.00 0.00 0.00 34 1015.3
20190616135932 27 299 4.8 14.5 0.00 0.00 0.00 33 1015.2
20190616135433 27 269 1.6 9.7 0.00 0.00 0.00 34 1015.3
20190616134932 27 235 4.8 16.1 0.00 0.00 0.00 34 1015.4
20190616134434 27 244 3.2 16.1 0.00 0.00 0.00 34 1015.4
20190616133932 26 197 4.8 16.1 0.00 0.00 0.00 36 1015.4